• Join FlightAware (Why Join?)
  • Login
  • US Flag 
12:23AM EST


 

Airport Tracker/Info


-or-


 

Live Flight TrackerFlight Track Log ✈ AAL1170 ✈ 25-Apr-2014 ✈ KBDL - KMIA

Flight Track Log - Related Links

Times and Time Zones

All times are in EDT time to prevent confusion due to time zone crossing. See the AAL1170 flight status page for this flight to view local times or setup timezone preferences in your user account.

Time Position Orientation Groundspeed Altitude Reporting Facility
EDT Latitude Longitude Course Direction KTS MPH feet Rate Location/Type
06:14AM 41.7207 -72.5854 160° South  Level FlightAware Approximate
06:15AM 41.6226 -72.5172 132° Southeast  Level FlightAware Approximate
06:16AM 41.5480 -72.4022 129° Southeast  Level FlightAware Approximate
06:17AM 41.4529 -72.3500 180° South  Level FlightAware Approximate
06:18AM 41.3398 -72.3344 173° South  Level FlightAware Approximate
06:19AM 41.2412 -72.3794 201° Southwest  Level FlightAware Approximate
06:20AM 41.1653 -72.4847 217° Southwest  Level FlightAware Approximate
06:21AM 41.0842 -72.5903 229° Southwest  Level FlightAware Approximate
06:22AM 40.9981 -72.6883 221° Southwest  Level FlightAware Approximate
06:23AM 40.9121 -72.7868 210° Southwest  Level FlightAware Approximate
06:24AM 40.8103 -72.8532 201° Southwest  Level FlightAware Approximate
06:25AM 40.7025 -72.9013 198° South  Level FlightAware Approximate
06:26AM 40.5965 -72.9555 205° Southwest  Level FlightAware Approximate
06:27AM 40.4913 -73.0127 201° Southwest  Level FlightAware Approximate
06:28AM 40.3849 -73.0659 201° Southwest  Level FlightAware Approximate
06:29AM 40.2790 -73.1206 203° Southwest  Level FlightAware Approximate
06:30AM 40.1739 -73.1779 203° Southwest  Level FlightAware Approximate
06:31AM 40.0778 -73.2555 217° Southwest  Level FlightAware Approximate
06:32AM 39.9917 -73.3526 221° Southwest  Level FlightAware Approximate
06:33AM 39.9061 -73.4505 221° Southwest  Level FlightAware Approximate
06:34AM 39.8203 -73.5480 221° Southwest  Level FlightAware Approximate
06:35AM 39.7341 -73.6447 221° Southwest  Level FlightAware Approximate
06:36AM 39.6479 -73.7412 221° Southwest  Level FlightAware Approximate
06:37AM 39.5615 -73.8375 221° Southwest  Level FlightAware Approximate
06:38AM 39.4751 -73.9335 221° Southwest  Level FlightAware Approximate
06:39AM 39.3885 -74.0292 220° Southwest  Level FlightAware Approximate
06:40AM 39.3010 -74.1235 220° Southwest  Level FlightAware Approximate
06:41AM 39.2136 -74.2175 220° Southwest  Level FlightAware Approximate
06:42AM 39.1260 -74.3113 220° Southwest  Level FlightAware Approximate
06:43AM 39.0384 -74.4049 220° Southwest  Level FlightAware Approximate
06:44AM 38.9506 -74.4983 220° Southwest  Level FlightAware Approximate
06:45AM 38.8637 -74.5928 220° Southwest  Level FlightAware Approximate
06:46AM 38.7770 -74.6873 220° Southwest  Level FlightAware Approximate
06:47AM 38.6895 -74.7808 220° Southwest  Level FlightAware Approximate
06:48AM 38.6018 -74.8736 220° Southwest  Level FlightAware Approximate
06:49AM 38.5139 -74.9661 220° Southwest  Level FlightAware Approximate
06:50AM 38.4260 -75.0585 219° Southwest  Level FlightAware Approximate
06:51AM 38.3380 -75.1506 219° Southwest  Level FlightAware Approximate
06:52AM 38.2499 -75.2425 219° Southwest  Level FlightAware Approximate
06:53AM 38.1618 -75.3342 219° Southwest  Level FlightAware Approximate
06:54AM 38.0736 -75.4256 219° Southwest  Level FlightAware Approximate
06:55AM 37.9748 -75.4959 206° Southwest  Level FlightAware Approximate
06:56AM 37.8722 -75.5584 206° Southwest  Level FlightAware Approximate
06:57AM 37.7696 -75.6207 206° Southwest  Level FlightAware Approximate
06:58AM 37.6669 -75.6828 206° Southwest  Level FlightAware Approximate
06:59AM 37.5642 -75.7447 206° Southwest  Level FlightAware Approximate
07:00AM 37.4614 -75.8065 206° Southwest  Level FlightAware Approximate
07:01AM 37.3589 -75.8688 206° Southwest  Level FlightAware Approximate
07:02AM 37.2565 -75.9314 206° Southwest  Level FlightAware Approximate
07:03AM 37.1541 -75.9939 206° Southwest  Level FlightAware Approximate
07:04AM 37.0503 -76.0522 203° Southwest  Level FlightAware Approximate
07:05AM 36.9456 -76.1080 203° Southwest  Level FlightAware Approximate
07:06AM 36.8417 -76.1661 207° Southwest  Level FlightAware Approximate
07:07AM 36.7405 -76.2312 207° Southwest  Level FlightAware Approximate
07:08AM 36.6393 -76.2962 207° Southwest  Level FlightAware Approximate
07:09AM 36.5349 -76.3526 203° Southwest  Level FlightAware Approximate
07:10AM 36.4303 -76.4084 203° Southwest  Level FlightAware Approximate
07:11AM 36.3260 -76.4651 204° Southwest  Level FlightAware Approximate
07:12AM 36.2221 -76.5227 204° Southwest  Level FlightAware Approximate
07:13AM 36.1181 -76.5801 204° Southwest  Level FlightAware Approximate
07:14AM 36.0141 -76.6374 204° Southwest  Level FlightAware Approximate
07:15AM 35.9101 -76.6945 204° Southwest  Level FlightAware Approximate
07:16AM 35.8071 -76.7543 205° Southwest  Level FlightAware Approximate
07:17AM 35.7042 -76.8142 205° Southwest  Level FlightAware Approximate
07:18AM 35.6002 -76.8712 204° Southwest  Level FlightAware Approximate
07:19AM 35.4962 -76.9283 205° Southwest  Level FlightAware Approximate
07:20AM 35.3929 -76.9869 205° Southwest  Level FlightAware Approximate
07:21AM 35.2896 -77.0454 205° Southwest  Level FlightAware Approximate
07:22AM 35.1862 -77.1038 205° Southwest  Level FlightAware Approximate
07:23AM 35.0828 -77.1619 205° Southwest  Level FlightAware Approximate
07:24AM 34.9794 -77.2200 205° Southwest  Level FlightAware Approximate
07:25AM 34.8759 -77.2779 205° Southwest  Level FlightAware Approximate
07:26AM 34.7724 -77.3357 205° Southwest  Level FlightAware Approximate
07:27AM 34.6689 -77.3933 205° Southwest  Level FlightAware Approximate
07:28AM 34.5653 -77.4505 195° South  Level FlightAware Approximate
07:29AM 34.4553 -77.4861 195° South  Level FlightAware Approximate
07:30AM 34.3453 -77.5216 195° South  Level FlightAware Approximate
07:31AM 34.2353 -77.5570 195° South  Level FlightAware Approximate
07:32AM 34.1253 -77.5923 195° South  Level FlightAware Approximate
07:33AM 34.0152 -77.6276 195° South  Level FlightAware Approximate
07:34AM 33.9052 -77.6627 195° South  Level FlightAware Approximate
07:35AM 33.7952 -77.6978 195° South  Level FlightAware Approximate
07:36AM 33.6851 -77.7328 195° South  Level FlightAware Approximate
07:37AM 33.5750 -77.7675 195° South  Level FlightAware Approximate
07:38AM 33.4649 -77.8022 195° South  Level FlightAware Approximate
07:39AM 33.3548 -77.8368 195° South  Level FlightAware Approximate
07:40AM 33.2447 -77.8713 195° South  Level FlightAware Approximate
07:41AM 33.1345 -77.9057 195° South  Level FlightAware Approximate
07:42AM 33.0244 -77.9400 195° South  Level FlightAware Approximate
07:43AM 32.9142 -77.9743 195° South  Level FlightAware Approximate
07:44AM 32.8041 -78.0084 195° South  Level FlightAware Approximate
07:45AM 32.6939 -78.0425 195° South  Level FlightAware Approximate
07:46AM 32.5838 -78.0764 195° South  Level FlightAware Approximate
07:47AM 32.4736 -78.1103 195° South  Level FlightAware Approximate
07:48AM 32.3634 -78.1442 195° South  Level FlightAware Approximate
07:49AM 32.2532 -78.1779 195° South  Level FlightAware Approximate
07:50AM 32.1429 -78.2115 194° South  Level FlightAware Approximate
07:51AM 32.0327 -78.2451 194° South  Level FlightAware Approximate
07:52AM 31.9224 -78.2783 194° South  Level FlightAware Approximate
07:53AM 31.8121 -78.3114 194° South  Level FlightAware Approximate
07:54AM 31.7018 -78.3445 194° South  Level FlightAware Approximate
07:55AM 31.5928 -78.3829 197° South  Level FlightAware Approximate
07:56AM 31.4839 -78.4215 194° South  Level FlightAware Approximate
07:57AM 31.3736 -78.4546 194° South  Level FlightAware Approximate
07:58AM 31.2638 -78.4899 196° South  Level FlightAware Approximate
07:59AM 31.1544 -78.5264 196° South  Level FlightAware Approximate
08:00AM 31.0449 -78.5629 196° South  Level FlightAware Approximate
08:01AM 30.9349 -78.5972 194° South  Level FlightAware Approximate
08:02AM 30.8244 -78.6288 194° South  Level FlightAware Approximate
08:03AM 30.7139 -78.6604 194° South  Level FlightAware Approximate
08:04AM 30.6028 -78.6888 189° South  Level FlightAware Approximate
08:05AM 30.4903 -78.7090 189° South  Level FlightAware Approximate
08:06AM 30.3778 -78.7291 189° South  Level FlightAware Approximate
08:07AM 30.2652 -78.7491 189° South  Level FlightAware Approximate
08:08AM 30.1527 -78.7691 189° South  Level FlightAware Approximate
08:09AM 30.0402 -78.7887 189° South  Level FlightAware Approximate
08:10AM 29.9276 -78.8083 189° South  Level FlightAware Approximate
08:11AM 29.8150 -78.8278 189° South  Level FlightAware Approximate
08:12AM 29.7021 -78.8442 187° South  Level FlightAware Approximate
08:13AM 29.5890 -78.8593 187° South  Level FlightAware Approximate
08:14AM 29.4760 -78.8744 187° South  Level FlightAware Approximate
08:15AM 29.3629 -78.8894 187° South  Level FlightAware Approximate
08:16AM 29.2498 -78.9047 187° South  Level FlightAware Approximate
08:17AM 29.1369 -78.9207 187° South  Level FlightAware Approximate
08:18AM 29.0239 -78.9367 187° South  Level FlightAware Approximate
08:19AM 28.9109 -78.9526 187° South  Level FlightAware Approximate
08:20AM 28.7979 -78.9684 187° South  Level FlightAware Approximate
08:21AM 28.6849 -78.9843 187° South  Level FlightAware Approximate
08:22AM 28.5720 -79.0001 187° South  Level FlightAware Approximate
08:23AM 28.4590 -79.0158 187° South  Level FlightAware Approximate
08:24AM 28.3460 -79.0316 187° South  Level FlightAware Approximate
08:25AM 28.2356 -79.0627 195° South  Level FlightAware Approximate
08:26AM 28.1256 -79.0957 195° South  Level FlightAware Approximate
08:27AM 28.0155 -79.1287 195° South  Level FlightAware Approximate
08:28AM 27.9055 -79.1616 195° South  Level FlightAware Approximate
08:29AM 27.7954 -79.1944 195° South  Level FlightAware Approximate
08:30AM 27.6853 -79.2272 195° South  Level FlightAware Approximate
08:31AM 27.5752 -79.2598 195° South  Level FlightAware Approximate
08:32AM 27.4651 -79.2925 195° South  Level FlightAware Approximate
08:33AM 27.3549 -79.3244 194° South  Level FlightAware Approximate
08:34AM 27.2443 -79.3546 194° South  Level FlightAware Approximate
08:35AM 27.1376 -79.3979 204° Southwest  Level FlightAware Approximate
08:36AM 27.0285 -79.4333 180° South  Level FlightAware Approximate
08:37AM 26.9182 -79.4606 197° South  Level FlightAware Approximate
08:38AM 26.8088 -79.4957 195° South  Level FlightAware Approximate
08:39AM 26.6988 -79.5287 195° South  Level FlightAware Approximate
08:40AM 26.6033 -79.5687 200° South  Level FlightAware Approximate
08:41AM 26.5085 -79.6330 241° Southwest  Level FlightAware Approximate
08:42AM 26.4519 -79.7433 238° Southwest  Level FlightAware Approximate
08:43AM 26.3919 -79.8513 238° Southwest  Level FlightAware Approximate
08:44AM 26.3107 -79.9394 222° Southwest  Level FlightAware Approximate
08:45AM 26.2186 -80.0088 194° South  Level FlightAware Approximate
08:46AM 26.1081 -80.0395 194° South  Level FlightAware Approximate
08:47AM 25.9977 -80.0701 194° South  Level FlightAware Approximate
08:48AM 25.9237 -80.1490 246° West  Level FlightAware Approximate
08:49AM 25.8829 -80.2671 222° Southwest  Level FlightAware Approximate
08:50AM 25.7954 -80.2901 266° West  Level Estimated
08:51AM 25.7954 -80.2901 275° West  Level Estimated
08:52AM 25.7954 -80.2901 275° West  Level Estimated
08:53AM 25.7954 -80.2901 103° East  Level Estimated
08:54AM 25.7954 -80.2901 103° East  Level Estimated
08:55AM 25.7954 -80.2901 103° East  Level Estimated
08:56AM 25.7954 -80.2901 103° East  Level Estimated